Time;durP1;ratioP1;P1;durP2;ratioP2;P2;SDS_P1;SDS_P2;PMS_P1;PMS_P2;Temp;Humidity;BMP_temperature;BMP_pressure;BME280_temperature;BME280_humidity;BME280_pressure;Samples;Min_cycle;Max_cycle;Signal;HPM_P1;HPM_P2
2022/07/16 00:02:09;;;;;;;7.10;1.07;;;;;;;10.53;75.20;99512.20;1773907;80;21637;-64
2022/07/16 00:04:36;;;;;;;2.97;1.00;;;;;;;10.50;75.21;99517.12;1777872;80;21121;-64
2022/07/16 00:07:03;;;;;;;4.33;1.20;;;;;;;10.49;75.39;99525.85;1781365;80;21689;-64
2022/07/16 00:09:29;;;;;;;6.05;2.45;;;;;;;10.47;75.41;99512.05;1784629;80;20941;-64
2022/07/16 00:11:56;;;;;;;7.42;1.82;;;;;;;10.44;75.56;99516.56;1778641;80;21466;-64
2022/07/16 00:14:23;;;;;;;2.87;1.32;;;;;;;10.43;75.56;99523.55;1784399;79;21447;-63
2022/07/16 00:16:50;;;;;;;6.08;1.20;;;;;;;10.43;75.66;99522.25;1779560;80;21015;-64
2022/07/16 00:19:18;;;;;;;4.67;1.30;;;;;;;10.41;75.77;99513.64;1781759;80;21514;-64
2022/07/16 00:21:48;;;;;;;9.43;2.37;;;;;;;10.42;75.83;99521.87;1751998;80;21550;-64
2022/07/16 00:24:16;;;;;;;6.67;1.30;;;;;;;10.41;75.96;99517.56;1740562;81;20981;-64
2022/07/16 00:26:43;;;;;;;;;;;;;;;10.42;76.17;99524.48;1737275;81;21552;-63
2022/07/16 00:29:09;;;;;;;4.22;0.98;;;;;;;10.44;76.30;99520.02;1750566;81;21112;-64
2022/07/16 00:31:36;;;;;;;3.67;1.20;;;;;;;10.43;76.14;99518.34;1744294;81;21080;-64
2022/07/16 00:34:06;;;;;;;4.05;1.27;;;;;;;10.44;76.29;99524.39;1737628;81;21776;-64
2022/07/16 00:36:36;;;;;;;5.22;1.10;;;;;;;10.45;76.40;99520.88;1740952;81;20950;-64
2022/07/16 00:39:05;;;;;;;2.45;1.07;;;;;;;10.46;76.48;99514.27;1746116;81;21531;-64
2022/07/16 00:41:32;;;;;;;2.67;1.17;;;;;;;10.47;76.47;99523.80;1743110;81;21923;-64
2022/07/16 00:44:06;;;;;;;4.65;1.30;;;;;;;10.48;76.63;99518.95;1740899;81;21476;-64
2022/07/16 00:46:34;;;;;;;4.83;2.12;;;;;;;10.49;76.73;99510.19;1737835;81;21043;-64
2022/07/16 00:49:01;;;;;;;4.33;1.52;;;;;;;10.50;76.80;99509.29;1728572;81;21041;-64
2022/07/16 00:51:29;;;;;;;7.97;1.20;;;;;;;10.50;76.89;99510.59;1739329;81;21051;-64
2022/07/16 00:53:57;;;;;;;2.70;1.00;;;;;;;10.50;77.01;99502.77;1745527;81;21098;-64
2022/07/16 00:56:25;;;;;;;4.08;1.02;;;;;;;10.50;77.05;99506.68;1746734;81;21068;-64
2022/07/16 00:58:53;;;;;;;3.08;1.50;;;;;;;10.50;77.08;99503.20;1744423;81;20950;-64
2022/07/16 01:01:20;;;;;;;4.97;1.15;;;;;;;10.52;77.22;99500.89;1742258;81;21069;-64
2022/07/16 01:03:48;;;;;;;5.35;1.50;;;;;;;10.56;77.35;99504.66;1740041;81;21646;-64
2022/07/16 01:06:15;;;;;;;4.03;1.10;;;;;;;10.58;77.44;99496.30;1738241;81;21059;-64
2022/07/16 01:08:45;;;;;;;;;;;;;;;10.61;77.48;99498.74;1737372;81;20946;-64
2022/07/16 01:11:14;;;;;;;6.08;1.12;;;;;;;10.61;77.66;99502.66;1732698;81;20177;-64
2022/07/16 01:13:43;;;;;;;4.92;1.15;;;;;;;10.61;77.65;99494.83;1733469;81;21050;-64
2022/07/16 01:16:11;;;;;;;5.37;1.00;;;;;;;10.62;77.66;99496.54;1749470;80;21080;-64
2022/07/16 01:18:40;;;;;;;4.03;1.32;;;;;;;10.61;77.74;99493.52;1732221;81;21054;-64
2022/07/16 01:21:06;;;;;;;4.17;1.10;;;;;;;10.60;77.76;99495.77;1705276;82;21618;-64
2022/07/16 01:23:34;;;;;;;2.87;0.88;;;;;;;10.59;77.81;99494.09;1729751;82;21140;-64
2022/07/16 01:26:01;;;;;;;2.92;0.90;;;;;;;10.57;77.90;99488.92;1732216;81;21083;-64
2022/07/16 01:28:28;;;;;;;2.60;0.88;;;;;;;10.57;78.01;99492.84;1746344;81;21563;-64
2022/07/16 01:30:55;;;;;;;6.17;1.45;;;;;;;10.57;78.10;99482.87;1743133;81;21081;-64
2022/07/16 01:33:34;;;;;;;4.75;0.95;;;;;;;10.50;78.21;99470.13;1744740;81;21646;-64
2022/07/16 01:36:06;;;;;;;4.12;1.00;;;;;;;10.59;78.30;99479.73;1772488;80;21491;-64
2022/07/16 01:38:34;;;;;;;2.92;0.80;;;;;;;10.60;78.41;99480.94;1739837;81;21434;-64
2022/07/16 01:41:00;;;;;;;3.52;0.88;;;;;;;10.60;78.38;99477.48;1731956;81;21031;-65
2022/07/16 01:43:29;;;;;;;5.12;1.67;;;;;;;10.60;78.44;99477.48;1743966;80;21149;-64
2022/07/16 01:45:57;;;;;;;6.17;2.47;;;;;;;10.60;78.57;99477.48;1738540;81;20989;-64
2022/07/16 01:48:25;;;;;;;4.45;0.95;;;;;;;10.59;78.54;99478.42;1741406;81;21016;-65
2022/07/16 01:50:53;;;;;;;2.60;0.88;;;;;;;10.58;78.59;99477.55;1738167;81;21057;-65
2022/07/16 01:53:20;;;;;;;5.47;1.10;;;;;;;10.58;78.67;99487.16;1737552;81;20994;-64
2022/07/16 01:55:47;;;;;;;5.65;1.10;;;;;;;10.55;78.87;99482.09;1743282;81;21417;-64
2022/07/16 01:58:15;;;;;;;5.63;1.23;;;;;;;10.55;78.87;99482.09;1743584;81;20899;-64
2022/07/16 02:00:45;;;;;;;3.80;0.95;;;;;;;10.55;78.80;99474.26;1737242;80;20986;-64
2022/07/16 02:03:13;;;;;;;5.53;1.30;;;;;;;10.53;78.93;99464.75;1735937;81;20940;-64
2022/07/16 02:05:39;;;;;;;;;;;;;;;10.53;78.93;99464.75;1745587;81;21163;-64
2022/07/16 02:08:07;;;;;;;3.27;1.02;;;;;;;10.53;79.27;99465.22;1737418;81;21179;-64
2022/07/16 02:10:35;;;;;;;2.87;0.82;;;;;;;10.53;79.21;99464.75;1722952;82;21063;-65
2022/07/16 02:13:03;;;;;;;4.70;0.98;;;;;;;10.55;79.27;99466.43;1746572;81;21037;-64
2022/07/16 02:15:30;;;;;;;2.75;0.85;;;;;;;10.56;79.29;99462.89;1743297;81;21009;-64
2022/07/16 02:17:57;;;;;;;;;;;;;;;10.57;79.29;99459.37;1735131;81;21006;-64
2022/07/16 02:20:23;;;;;;;8.03;1.67;;;;;;;10.57;79.47;99464.59;1738795;81;21985;-65
2022/07/16 02:22:53;;;;;;;3.33;1.10;;;;;;;10.56;79.43;99463.75;1749318;80;21012;-64
2022/07/16 02:25:20;;;;;;;3.00;0.80;;;;;;;10.57;79.39;99467.20;1773169;80;20986;-64
2022/07/16 02:30:35;;;;;;;3.00;0.88;;;;;;;10.52;79.52;99456.52;1751779;81;21040;-64
2022/07/16 02:33:02;;;;;;;3.98;1.30;;;;;;;10.52;79.53;99460.44;1756724;81;21897;-64
2022/07/16 02:35:28;;;;;;;3.77;0.98;;;;;;;10.52;79.58;99460.44;1772699;80;21030;-64
2022/07/16 02:37:57;;;;;;;4.03;0.95;;;;;;;10.50;79.58;99458.39;1777511;80;20986;-64
2022/07/16 02:40:25;;;;;;;3.92;0.90;;;;;;;10.48;79.67;99456.31;1770083;80;21066;-65
2022/07/16 02:42:52;;;;;;;3.87;0.80;;;;;;;10.48;79.68;99456.31;1776337;80;20958;-64
2022/07/16 02:45:18;;;;;;;3.65;1.25;;;;;;;10.48;79.73;99453.70;1775903;80;21384;-64
2022/07/16 02:47:45;;;;;;;4.12;0.90;;;;;;;10.48;79.74;99456.31;1775737;80;20938;-64
2022/07/16 02:50:12;;;;;;;2.60;0.77;;;;;;;10.45;79.79;99451.25;1752537;80;20942;-64
2022/07/16 02:52:39;;;;;;;3.75;1.30;;;;;;;10.44;79.82;99449.54;1754035;80;21002;-64
2022/07/16 02:55:07;;;;;;;3.85;0.72;;;;;;;10.46;79.86;99451.62;1761099;81;21009;-64
2022/07/16 02:57:34;;;;;;;4.47;1.42;;;;;;;10.49;79.96;99454.53;1755289;80;21073;-64
2022/07/16 03:00:00;;;;;;;4.80;0.95;;;;;;;10.55;80.11;99450.77;1734375;82;20929;-65
2022/07/16 03:02:27;;;;;;;3.52;1.15;;;;;;;10.74;80.50;99451.50;1771396;79;20943;-65
2022/07/16 03:04:54;;;;;;;3.90;0.70;;;;;;;11.27;80.93;99450.41;1778380;80;21481;-65
2022/07/16 03:07:20;;;;;;;1.80;0.80;;;;;;;12.02;80.91;99445.41;1772843;80;20915;-65
2022/07/16 03:09:47;;;;;;;2.03;0.80;;;;;;;12.35;79.78;99441.73;1746410;80;21177;-65
2022/07/16 03:12:14;;;;;;;3.13;0.90;;;;;;;12.28;79.30;99447.34;1764114;81;21381;-65
2022/07/16 03:14:41;;;;;;;1.80;0.70;;;;;;;12.42;80.21;99450.92;1759251;79;20978;-65
2022/07/16 03:17:07;;;;;;;1.45;0.78;;;;;;;13.40;80.92;99444.95;1758259;80;21056;-64
2022/07/16 03:19:34;;;;;;;4.13;0.93;;;;;;;14.42;80.11;99447.88;1754019;79;21028;-65
2022/07/16 03:22:01;;;;;;;2.00;0.80;;;;;;;15.37;79.59;99443.94;1742860;81;21079;-65
2022/07/16 03:24:28;;;;;;;3.27;1.42;;;;;;;16.28;78.96;99440.81;1733947;81;21395;-65
2022/07/16 03:26:55;;;;;;;2.42;0.90;;;;;;;17.15;78.98;99435.89;1738404;82;21092;-65
2022/07/16 03:29:22;;;;;;;4.12;1.30;;;;;;;18.05;78.55;99426.92;1734587;82;20958;-66
2022/07/16 03:31:49;;;;;;;4.15;1.00;;;;;;;18.79;77.55;99424.20;1736254;81;21056;-66
2022/07/16 03:34:16;;;;;;;2.12;0.95;;;;;;;20.30;76.21;99423.07;1730949;81;21033;-66
2022/07/16 03:36:42;;;;;;;3.37;0.90;;;;;;;20.30;76.21;99423.07;1734400;82;21017;-66
2022/07/16 03:39:09;;;;;;;4.03;1.17;;;;;;;20.83;76.12;99426.19;1743952;81;21689;-66
2022/07/16 03:41:38;;;;;;;5.03;1.20;;;;;;;21.49;75.57;99428.69;1744059;81;20958;-66
2022/07/16 03:44:08;;;;;;;3.35;0.98;;;;;;;22.16;75.80;99417.70;1737211;82;21581;-66
2022/07/16 03:46:37;;;;;;;7.70;1.17;;;;;;;22.41;74.28;99416.91;1737279;81;21072;-66
2022/07/16 03:49:04;;;;;;;3.83;1.25;;;;;;;22.97;74.45;99420.92;1735941;82;21073;-66
2022/07/16 03:51:32;;;;;;;3.52;1.20;;;;;;;23.94;74.49;99415.20;1776657;80;22424;-66
2022/07/16 03:55:36;;;;;;;2.33;0.90;;;;;;;24.27;70.75;99416.86;1798790;78;22090;-65
2022/07/16 03:58:02;;;;;;;3.50;1.22;;;;;;;23.54;69.07;99414.12;1777014;80;20907;-65
2022/07/16 04:00:29;;;;;;;1.98;0.88;;;;;;;21.86;68.77;99417.09;1768573;80;21805;-65
2022/07/16 04:02:56;;;;;;;;;;;;;;;20.44;69.06;99407.70;1763921;80;21069;-65
2022/07/16 04:05:22;;;;;;;2.83;0.90;;;;;;;20.67;70.70;99417.04;1766033;80;20100;-65
2022/07/16 04:07:49;;;;;;;1.82;0.68;;;;;;;21.20;70.11;99408.89;1719739;81;21262;-65
2022/07/16 04:10:16;;;;;;;2.58;0.65;;;;;;;20.62;68.15;99404.70;1710785;83;21002;-65
2022/07/16 04:12:42;;;;;;;5.80;0.90;;;;;;;19.59;67.87;99410.59;1732399;81;21615;-64
2022/07/16 04:15:10;;;;;;;;;;;;;;;18.64;67.76;99409.62;1737856;81;20970;-64
2022/07/16 04:17:37;;;;;;;3.52;0.75;;;;;;;17.63;67.45;99422.36;1739050;81;20096;-64
2022/07/16 04:20:05;;;;;;;1.00;0.40;;;;;;;15.86;67.78;99397.47;1730340;81;21065;-64
2022/07/16 04:22:32;;;;;;;2.35;0.75;;;;;;;15.86;67.78;99397.47;1710368;83;21061;-64
2022/07/16 04:24:59;;;;;;;2.72;0.60;;;;;;;15.40;68.09;99420.06;1730966;80;21464;-64
2022/07/16 04:27:26;;;;;;;2.37;0.62;;;;;;;14.97;68.12;99412.58;1729551;81;21008;-64
2022/07/16 04:29:52;;;;;;;1.57;0.60;;;;;;;14.63;68.30;99421.14;1734423;81;20971;-64
2022/07/16 04:32:19;;;;;;;0.70;0.40;;;;;;;14.37;68.33;99418.48;1732954;81;21658;-64
2022/07/16 04:34:45;;;;;;;0.95;0.55;;;;;;;14.17;68.36;99418.95;1736750;81;21281;-64
2022/07/16 04:37:13;;;;;;;0.80;0.60;;;;;;;14.03;68.43;99414.18;1738526;81;21627;-64
2022/07/16 04:39:39;;;;;;;;;;;;;;;14.10;69.04;99411.50;1723415;82;21282;-64
2022/07/16 04:42:06;;;;;;;1.37;0.57;;;;;;;14.50;69.18;99400.92;1724052;82;20096;-64
2022/07/16 04:44:32;;;;;;;1.10;0.75;;;;;;;14.78;69.09;99405.13;1729209;82;20993;-64
2022/07/16 04:46:59;;;;;;;1.83;0.63;;;;;;;15.26;69.22;99392.57;1719377;82;21096;-65
2022/07/16 04:49:26;;;;;;;2.20;0.80;;;;;;;16.49;69.97;99404.56;1735224;81;22085;-64
2022/07/16 04:51:52;;;;;;;1.62;0.80;;;;;;;17.77;69.63;99391.36;1738294;81;20987;-65
2022/07/16 04:54:19;;;;;;;4.53;0.90;;;;;;;19.69;70.27;99386.31;1710633;83;21607;-65
2022/07/16 04:56:46;;;;;;;1.62;0.82;;;;;;;20.66;67.65;99378.21;1704978;82;20922;-65
2022/07/16 04:59:12;;;;;;;2.70;0.90;;;;;;;20.30;66.75;99364.74;1715793;82;21582;-65
2022/07/16 05:01:39;;;;;;;2.80;1.05;;;;;;;19.77;66.88;99369.20;1718646;82;21426;-65
2022/07/16 05:04:05;;;;;;;2.22;0.80;;;;;;;20.32;67.90;99360.14;1717270;82;21073;-65
2022/07/16 05:06:32;;;;;;;2.25;0.90;;;;;;;21.61;67.95;99350.44;1719505;82;20915;-66
2022/07/16 05:09:01;;;;;;;;;;;;;;;23.01;67.31;99354.36;1726409;82;20973;-65
2022/07/16 05:11:28;;;;;;;1.67;0.60;;;;;;;24.28;66.55;99342.52;1716567;82;20106;-65
2022/07/16 05:13:56;;;;;;;2.10;0.70;;;;;;;25.38;66.44;99343.93;1720797;82;23958;-63
2022/07/16 05:16:24;;;;;;;2.75;0.80;;;;;;;25.35;64.59;99351.48;1714768;82;20974;-65
2022/07/16 05:18:51;;;;;;;7.58;0.90;;;;;;;24.45;63.33;99343.81;1714122;82;21667;-65
2022/07/16 05:21:18;;;;;;;0.93;0.50;;;;;;;23.42;63.07;99346.99;1716811;82;21046;-65
2022/07/16 05:23:45;;;;;;;1.40;0.65;;;;;;;22.64;63.62;99351.20;1721330;82;21052;-65
2022/07/16 05:26:11;;;;;;;;;;;;;;;21.95;63.10;99349.72;1729200;81;22275;-65
2022/07/16 05:28:38;;;;;;;2.95;0.68;;;;;;;21.11;62.79;99355.38;1732084;82;20148;-65
2022/07/16 05:31:05;;;;;;;2.85;0.60;;;;;;;20.55;63.13;99356.67;1724480;82;21050;-65
2022/07/16 05:36:08;;;;;;;7.40;1.45;;;;;;;20.15;63.28;99355.58;1844589;76;22630;-65
2022/07/16 05:38:35;;;;;;;3.45;0.95;;;;;;;20.37;63.43;99348.28;1805294;78;20991;-65
2022/07/16 05:41:02;;;;;;;7.05;0.78;;;;;;;20.81;63.57;99344.09;1807226;78;24809;-65
2022/07/16 05:43:28;;;;;;;3.77;0.70;;;;;;;21.21;62.63;99342.89;1803761;78;26701;-65
2022/07/16 05:45:56;;;;;;;4.95;0.70;;;;;;;21.22;62.07;99348.03;1811323;78;21017;-65
2022/07/16 05:48:22;;;;;;;3.22;0.70;;;;;;;21.01;61.84;99342.17;1812702;78;20923;-65
2022/07/16 05:50:49;;;;;;;2.67;0.72;;;;;;;20.76;61.78;99347.18;1803109;78;21016;-65
2022/07/16 05:53:16;;;;;;;2.08;0.95;;;;;;;20.67;61.54;99348.06;1809608;78;21698;-64
2022/07/16 05:55:43;;;;;;;4.67;1.00;;;;;;;20.44;61.38;99349.36;1812897;78;21023;-64
2022/07/16 05:58:09;;;;;;;3.25;1.20;;;;;;;20.06;61.33;99351.98;1813943;77;20973;-64
2022/07/16 06:00:36;;;;;;;1.87;0.65;;;;;;;19.87;61.46;99351.50;1811960;78;21508;-64
2022/07/16 06:03:03;;;;;;;1.62;0.55;;;;;;;19.69;61.50;99343.94;1815608;77;20959;-65
2022/07/16 06:05:29;;;;;;;1.80;0.55;;;;;;;19.56;61.10;99347.31;1784574;79;22318;-64
2022/07/16 06:07:56;;;;;;;3.67;1.37;;;;;;;19.36;61.10;99342.49;1790306;78;20978;-64
2022/07/16 06:10:23;;;;;;;1.80;0.68;;;;;;;19.26;61.20;99341.14;1793361;79;21046;-68
2022/07/16 06:12:49;;;;;;;3.35;0.80;;;;;;;19.25;61.26;99334.19;1787818;79;21515;-65
2022/07/16 06:15:16;;;;;;;3.65;0.57;;;;;;;19.21;61.38;99336.73;1788057;79;20977;-68
2022/07/16 06:17:43;;;;;;;;;;;;;;;19.74;61.79;99339.03;1791156;79;21549;-66
2022/07/16 06:20:12;;;;;;;3.92;0.80;;;;;;;20.18;61.50;99333.26;1786170;79;20478;-64
2022/07/16 06:22:40;;;;;;;1.57;0.60;;;;;;;20.59;61.14;99321.44;1817255;78;20980;-63
2022/07/16 06:25:08;;;;;;;3.80;0.90;;;;;;;20.73;60.77;99323.59;1785165;79;21020;-63
2022/07/16 06:27:34;;;;;;;2.27;0.90;;;;;;;20.70;60.44;99317.77;1816613;78;21035;-63
2022/07/16 06:30:05;;;;;;;1.67;0.60;;;;;;;20.70;60.60;99313.28;1788390;79;21054;-64
2022/07/16 06:32:32;;;;;;;2.02;1.10;;;;;;;21.52;61.03;99308.86;1790383;79;20985;-64
2022/07/16 06:34:59;;;;;;;4.85;1.22;;;;;;;22.06;61.08;99309.59;1811557;77;21058;-64
2022/07/16 06:37:26;;;;;;;6.22;0.85;;;;;;;22.45;60.30;99301.20;1788457;79;20989;-64
2022/07/16 06:39:52;;;;;;;1.82;0.72;;;;;;;22.57;60.06;99307.08;1795331;79;21506;-65
2022/07/16 06:42:19;;;;;;;3.87;0.90;;;;;;;22.41;59.40;99307.85;1784921;78;21393;-66
2022/07/16 06:44:45;;;;;;;;;;;;;;;21.99;59.19;99310.39;1789870;78;21526;-66
2022/07/16 06:47:12;;;;;;;5.08;0.82;;;;;;;21.57;58.88;99314.55;1786795;78;28129;-65
2022/07/16 06:49:39;;;;;;;4.50;0.70;;;;;;;21.09;58.96;99310.41;1791301;79;21332;-65
2022/07/16 06:52:06;;;;;;;2.42;1.15;;;;;;;20.70;58.97;99313.28;1811846;79;21490;-66
2022/07/16 06:54:32;;;;;;;;;;;;;;;20.28;58.84;99305.75;1790412;79;20997;-66
2022/07/16 06:56:59;;;;;;;1.95;0.72;;;;;;;19.86;58.61;99306.13;1789119;79;20169;-66
2022/07/16 06:59:26;;;;;;;2.92;0.55;;;;;;;19.49;58.69;99307.78;1792309;79;20915;-67
2022/07/16 07:01:52;;;;;;;2.65;0.78;;;;;;;19.19;58.91;99296.37;1790042;79;21265;-65
2022/07/16 07:04:19;;;;;;;3.08;0.80;;;;;;;18.85;58.77;99303.80;1785432;78;21536;-65
2022/07/16 07:06:45;;;;;;;1.77;0.65;;;;;;;18.51;58.90;99302.30;1793511;78;21430;-65
2022/07/16 07:09:12;;;;;;;5.08;0.90;;;;;;;18.27;58.85;99309.70;1787839;78;20988;-65
2022/07/16 07:11:42;;;;;;;3.60;0.90;;;;;;;17.92;58.97;99305.59;1790491;79;20989;-65
2022/07/16 07:14:09;;;;;;;1.87;0.68;;;;;;;17.67;59.10;99302.35;1785816;79;20993;-64
2022/07/16 07:16:36;;;;;;;4.72;0.75;;;;;;;17.53;59.26;99305.31;1784395;79;20985;-65
2022/07/16 07:19:04;;;;;;;2.95;0.85;;;;;;;17.33;59.33;99306.09;1789045;78;21086;-65
2022/07/16 07:21:30;;;;;;;4.97;0.80;;;;;;;17.15;59.38;99303.98;1788277;78;21772;-62
2022/07/16 07:23:58;;;;;;;6.37;0.65;;;;;;;17.01;59.53;99304.27;1791471;79;20968;-64
2022/07/16 07:26:24;;;;;;;2.27;0.78;;;;;;;16.88;59.78;99303.58;1783287;78;20937;-65
2022/07/16 07:28:51;;;;;;;1.87;0.70;;;;;;;16.74;59.81;99302.00;1786256;78;21542;-66
2022/07/16 07:31:18;;;;;;;4.28;1.15;;;;;;;16.60;59.85;99305.73;1809989;77;21492;-65
2022/07/16 07:33:45;;;;;;;3.75;0.70;;;;;;;16.37;60.11;99301.44;1821126;77;20936;-64
2022/07/16 07:36:11;;;;;;;4.65;0.65;;;;;;;16.24;60.35;99299.73;1830002;77;21459;-64
2022/07/16 07:38:38;;;;;;;4.03;0.80;;;;;;;16.05;60.33;99307.41;1815948;77;21201;-64
2022/07/16 07:41:06;;;;;;;2.08;0.60;;;;;;;15.79;60.58;99299.66;1811021;77;21024;-65
2022/07/16 07:43:33;;;;;;;4.95;1.20;;;;;;;15.52;60.83;99301.73;1813925;77;20960;-64
2022/07/16 07:45:59;;;;;;;1.65;0.50;;;;;;;15.34;61.00;99302.11;1815090;77;20975;-64
2022/07/16 07:48:26;;;;;;;4.25;1.15;;;;;;;15.15;61.52;99302.64;1813924;78;21052;-65
2022/07/16 07:50:52;;;;;;;1.60;0.70;;;;;;;14.85;61.15;99310.95;1797339;78;20964;-64
2022/07/16 07:53:19;;;;;;;3.00;0.98;;;;;;;14.44;61.99;99327.80;1772457;78;21569;-65
2022/07/16 07:55:46;;;;;;;3.55;1.25;;;;;;;14.08;61.80;99331.99;1788321;79;21004;-65
2022/07/16 07:58:12;;;;;;;3.67;1.42;;;;;;;13.83;62.24;99326.72;1817394;77;22227;-63
2022/07/16 08:00:40;;;;;;;3.70;0.80;;;;;;;13.69;62.71;99337.30;1828941;77;21012;-64
2022/07/16 08:03:07;;;;;;;3.17;1.00;;;;;;;13.59;62.86;99330.05;1818672;77;21565;-65
2022/07/16 08:05:34;;;;;;;8.08;6.22;;;;;;;13.54;63.11;99336.06;1792467;78;20988;-64
2022/07/16 08:08:21;;;;;;;3.20;1.10;;;;;;;13.52;63.32;99332.69;1795951;78;21034;-64
2022/07/16 08:10:49;;;;;;;1.15;0.50;;;;;;;13.55;63.72;99330.34;1739623;81;20952;-64
2022/07/16 08:13:17;;;;;;;2.20;0.72;;;;;;;13.61;64.01;99325.55;1741166;81;21082;-64
2022/07/16 08:15:44;;;;;;;1.98;0.90;;;;;;;13.77;64.31;99316.64;1741808;81;21111;-64
2022/07/16 08:18:11;;;;;;;1.47;0.60;;;;;;;13.90;64.46;99317.98;1740261;80;20948;-64
2022/07/16 08:20:39;;;;;;;2.27;0.82;;;;;;;14.03;64.78;99311.80;1741751;81;21322;-64
2022/07/16 08:23:06;;;;;;;2.65;0.88;;;;;;;14.11;64.79;99306.01;1741540;81;21106;-65
2022/07/16 08:28:19;;;;;;;2.85;1.00;;;;;;;14.37;65.29;99302.05;1698851;83;21039;-64
2022/07/16 08:30:46;;;;;;;1.98;0.95;;;;;;;14.55;65.42;99299.02;1697738;83;22306;-65
2022/07/16 08:33:16;;;;;;;2.00;0.62;;;;;;;14.68;65.67;99300.80;1701149;83;21129;-66
2022/07/16 08:35:44;;;;;;;3.10;0.78;;;;;;;14.75;65.65;99300.71;1698765;82;21067;-66
2022/07/16 08:38:10;;;;;;;2.37;0.80;;;;;;;14.80;65.75;99295.97;1700510;82;21060;-65
2022/07/16 08:40:41;;;;;;;1.60;0.90;;;;;;;14.85;66.01;99296.48;1698597;83;20901;-65
2022/07/16 08:43:09;;;;;;;4.45;0.82;;;;;;;14.94;66.19;99303.70;1701566;83;20988;-65
2022/07/16 08:45:36;;;;;;;2.52;0.98;;;;;;;15.03;66.24;99297.42;1699766;83;21821;-64
2022/07/16 08:48:03;;;;;;;6.10;1.40;;;;;;;14.99;66.27;99297.64;1700485;83;21056;-65
2022/07/16 08:50:30;;;;;;;2.62;1.10;;;;;;;15.02;66.41;99293.13;1698852;83;20988;-65
2022/07/16 08:52:58;;;;;;;3.20;1.40;;;;;;;15.10;66.60;99293.41;1699126;84;20953;-65
2022/07/16 08:55:26;;;;;;;1.80;0.95;;;;;;;15.11;66.65;99284.56;1718399;81;21028;-64
2022/07/16 08:57:56;;;;;;;2.52;1.10;;;;;;;15.07;66.87;99277.83;1719852;81;21146;-65
2022/07/16 09:00:23;;;;;;;4.92;1.00;;;;;;;15.16;67.06;99283.75;1720302;81;21064;-65
2022/07/16 09:02:49;;;;;;;1.92;0.93;;;;;;;15.22;66.94;99281.98;1718841;83;21641;-66
2022/07/16 09:05:16;;;;;;;1.30;0.70;;;;;;;15.18;67.03;99279.23;1718559;82;21066;-65
2022/07/16 09:07:44;;;;;;;1.37;0.80;;;;;;;15.13;67.20;99277.41;1717797;82;21683;-65
2022/07/16 09:10:11;;;;;;;2.33;0.85;;;;;;;15.06;67.35;99278.31;1718874;81;21538;-64
2022/07/16 09:12:45;;;;;;;3.67;0.65;;;;;;;15.06;67.34;99278.80;1698399;83;28247;-65
2022/07/16 09:15:35;;;;;;;1.67;0.50;;;;;;;15.12;67.71;99280.97;1718120;83;21070;-63
2022/07/16 09:18:20;;;;;;;2.10;0.68;;;;;;;15.27;67.88;99274.60;1700643;83;21103;-64
2022/07/16 09:20:51;;;;;;;1.17;0.80;;;;;;;15.43;67.89;99268.57;1696783;83;21053;-66
2022/07/16 09:23:29;;;;;;;2.40;0.75;;;;;;;15.58;68.07;99269.69;1699503;82;21113;-67
2022/07/16 09:26:00;;;;;;;2.15;1.00;;;;;;;15.62;68.05;99271.13;1699122;82;21593;-66
2022/07/16 09:28:49;;;;;;;3.27;0.80;;;;;;;15.68;68.12;99269.37;1689737;83;21135;-66
2022/07/16 09:31:40;;;;;;;7.72;1.27;;;;;;;15.66;68.05;99262.06;1688317;83;21038;-67
2022/07/16 09:34:18;;;;;;;1.22;0.70;;;;;;;15.55;67.86;99268.61;1691317;83;21649;-65
2022/07/16 09:37:03;;;;;;;2.00;0.78;;;;;;;15.40;68.09;99266.63;1687442;83;21266;-66
2022/07/16 09:39:35;;;;;;;;;;;;;;;15.23;68.27;99270.50;1687403;83;21006;-65
2022/07/16 09:42:05;;;;;;;1.45;0.62;;;;;;;15.05;68.16;99269.23;1691166;83;20215;-66
2022/07/16 09:44:36;;;;;;;2.87;0.70;;;;;;;14.82;68.17;99265.17;1718923;81;20961;-65
2022/07/16 09:49:32;;;;;;;1.95;0.75;;;;;;;14.50;68.46;99259.06;1816252;77;24942;-62
2022/07/16 09:52:00;;;;;;;1.70;0.78;;;;;;;14.31;68.55;99261.30;1797888;78;21182;-63
2022/07/16 09:54:37;;;;;;;1.55;0.53;;;;;;;14.19;68.83;99256.44;1799033;78;21248;-64
2022/07/16 09:58:30;;;;;;;1.02;0.53;;;;;;;14.05;69.15;99252.14;1826181;77;22735;-62
2022/07/16 10:01:08;;;;;;;3.00;0.65;;;;;;;13.93;68.98;99249.06;1748596;80;21060;-63
2022/07/16 10:05:22;;;;;;;1.62;0.68;;;;;;;13.70;69.27;99244.55;1753897;80;24560;-64
2022/07/16 10:20:34;;;;;;;1.50;0.70;;;;;;;13.37;69.58;99234.06;1826458;76;22632;-61
2022/07/16 10:23:06;;;;;;;1.82;0.60;;;;;;;13.28;70.01;99238.61;1798058;78;20988;-61
2022/07/16 10:25:35;;;;;;;3.60;1.02;;;;;;;13.32;70.48;99232.20;1794969;79;21461;-62
2022/07/16 10:28:02;;;;;;;4.95;1.10;;;;;;;13.29;70.55;99232.41;1803293;77;21503;-61
2022/07/16 10:30:30;;;;;;;5.35;1.42;;;;;;;13.40;70.86;99231.23;1797396;78;21021;-61
2022/07/16 10:33:06;;;;;;;2.17;1.00;;;;;;;13.53;71.09;99220.30;1791699;78;21553;-60
2022/07/16 10:35:45;;;;;;;1.35;0.80;;;;;;;13.62;70.98;99224.91;1783944;79;20961;-60
2022/07/16 10:38:23;;;;;;;2.35;0.95;;;;;;;13.72;71.09;99216.41;1791838;78;21482;-59
2022/07/16 10:41:09;;;;;;;;;;;;;;;13.79;71.24;99215.05;1791639;79;20943;-60
2022/07/16 10:43:37;;;;;;;3.35;0.60;;;;;;;13.88;71.39;99217.03;1791061;78;26254;-60
2022/07/16 10:46:07;;;;;;;3.25;1.30;;;;;;;13.93;71.39;99211.00;1800659;77;21020;-60
2022/07/16 10:48:42;;;;;;;1.62;0.70;;;;;;;14.02;71.62;99209.05;1791693;79;20966;-60
2022/07/16 10:51:18;;;;;;;1.72;0.82;;;;;;;14.15;71.62;99213.45;1787530;79;21286;-62
2022/07/16 10:54:09;;;;;;;1.82;1.00;;;;;;;14.30;71.70;99204.48;1799282;78;20948;-61
2022/07/16 10:56:43;;;;;;;3.72;0.90;;;;;;;14.40;71.75;99204.69;1741725;81;20981;-59
2022/07/16 10:59:12;;;;;;;2.22;0.93;;;;;;;14.52;71.90;99198.09;1751241;81;21580;-60
2022/07/16 11:01:41;;;;;;;2.83;0.98;;;;;;;14.67;72.01;99194.83;1730784;81;21128;-61
2022/07/16 11:04:10;;;;;;;1.37;0.80;;;;;;;14.77;71.98;99189.76;1753680;80;21086;-60
2022/07/16 11:06:43;;;;;;;1.67;0.98;;;;;;;14.79;71.92;99187.87;1759202;80;21001;-60
